createdAt,value
2023-04-25T00:02:47.404Z,100.00
2023-04-25T00:05:52.628Z,100.00
2023-04-25T00:08:56.589Z,100.00
2023-04-25T00:11:59.191Z,100.00
2023-04-25T00:15:01.916Z,100.00
2023-04-25T00:18:05.010Z,100.00
2023-04-25T00:21:09.015Z,100.00
2023-04-25T00:24:11.589Z,100.00
2023-04-25T00:27:14.166Z,100.00
2023-04-25T00:30:16.817Z,100.00
2023-04-25T00:33:19.437Z,100.00
2023-04-25T00:36:23.404Z,100.00
2023-04-25T00:39:25.993Z,100.00
2023-04-25T00:42:29.097Z,100.00
2023-04-25T00:45:31.949Z,100.00
2023-04-25T00:48:34.535Z,100.00
2023-04-25T00:51:38.913Z,100.00
2023-04-25T00:54:41.896Z,100.00
2023-04-25T00:57:44.961Z,100.00
2023-04-25T01:00:48.506Z,100.00
2023-04-25T01:03:52.123Z,100.00
2023-04-25T01:06:56.488Z,100.00
2023-04-25T01:09:59.794Z,100.00
2023-04-25T01:13:02.433Z,100.00
2023-04-25T01:16:05.529Z,100.00
2023-04-25T01:19:12.092Z,100.00
2023-04-25T01:22:16.569Z,100.00
2023-04-25T01:25:19.376Z,100.00
2023-04-25T01:28:22.964Z,100.00
2023-04-25T01:31:25.931Z,100.00
2023-04-25T01:34:28.593Z,100.00
2023-04-25T01:37:32.597Z,100.00
2023-04-25T01:40:35.996Z,100.00
2023-04-25T01:43:38.728Z,100.00
2023-04-25T01:46:41.555Z,100.00
2023-04-25T01:49:44.195Z,100.00
2023-04-25T01:52:48.262Z,100.00
2023-04-25T01:55:50.821Z,100.00
2023-04-25T01:58:53.774Z,100.00
2023-04-25T02:01:56.464Z,100.00
2023-04-25T02:04:59.103Z,100.00
2023-04-25T02:08:03.083Z,100.00
2023-04-25T02:11:05.793Z,100.00
2023-04-25T02:14:08.383Z,100.00
2023-04-25T02:17:11.093Z,100.00
2023-04-25T02:20:14.027Z,100.00
2023-04-25T02:23:19.971Z,100.00
2023-04-25T02:26:24.617Z,100.00
2023-04-25T02:29:27.194Z,99.39
2023-04-25T02:32:29.844Z,98.93
2023-04-25T02:35:32.519Z,100.00
2023-04-25T02:38:36.482Z,100.00
2023-04-25T02:41:39.097Z,99.48
2023-04-25T02:44:41.688Z,98.76
2023-04-25T02:47:44.367Z,98.84
2023-04-25T02:50:47.005Z,98.58
2023-04-25T02:53:51.149Z,97.05
2023-04-25T02:56:54.065Z,97.27
2023-04-25T02:59:56.650Z,97.64
2023-04-25T03:02:59.327Z,96.80
2023-04-25T03:06:02.082Z,96.91
2023-04-25T03:09:06.053Z,95.61
2023-04-25T03:12:08.663Z,96.28
2023-04-25T03:15:11.977Z,93.77
2023-04-25T03:18:14.543Z,94.49
2023-04-25T03:21:17.128Z,90.80
2023-04-25T03:24:21.697Z,91.89
2023-04-25T03:27:24.359Z,92.42
2023-04-25T03:30:27.098Z,91.79
2023-04-25T03:33:29.670Z,91.75
2023-04-25T03:36:33.610Z,92.22
2023-04-25T03:39:38.553Z,91.17
2023-04-25T03:42:41.791Z,91.34
2023-04-25T03:45:45.540Z,90.35
2023-04-25T03:48:48.142Z,89.28
2023-04-25T03:51:50.806Z,88.29
2023-04-25T03:54:54.751Z,88.53
2023-04-25T03:57:58.867Z,88.33
2023-04-25T04:01:03.429Z,86.92
2023-04-25T04:04:06.344Z,85.45
2023-04-25T04:07:09.209Z,84.92
2023-04-25T04:10:13.865Z,83.04
2023-04-25T04:13:16.439Z,83.61
2023-04-25T04:16:19.699Z,82.58
2023-04-25T04:19:22.375Z,84.65
2023-04-25T04:22:25.652Z,85.40
2023-04-25T04:25:29.641Z,85.28
2023-04-25T04:28:32.277Z,84.67
2023-04-25T04:31:34.933Z,86.29
2023-04-25T04:34:38.372Z,84.58
2023-04-25T04:37:40.978Z,85.69
2023-04-25T04:40:45.058Z,85.26
2023-04-25T04:43:47.826Z,85.91
2023-04-25T04:46:51.475Z,85.58
2023-04-25T04:49:54.090Z,82.83
2023-04-25T04:52:56.655Z,84.50
2023-04-25T04:56:00.899Z,86.28
2023-04-25T04:59:03.826Z,83.92
2023-04-25T05:02:06.428Z,83.46
2023-04-25T05:05:09.837Z,84.13
2023-04-25T05:08:12.425Z,82.90
2023-04-25T05:11:16.398Z,82.97
2023-04-25T05:14:19.329Z,82.95
2023-04-25T05:17:22.063Z,82.42
2023-04-25T05:20:24.923Z,80.71
2023-04-25T05:23:28.762Z,80.45
2023-04-25T05:26:32.942Z,80.35
2023-04-25T05:29:36.153Z,79.91
2023-04-25T05:32:38.757Z,79.21
2023-04-25T05:35:41.483Z,80.82
2023-04-25T05:38:44.076Z,81.41
2023-04-25T05:41:47.996Z,82.45
2023-04-25T05:44:50.614Z,82.55
2023-04-25T05:47:54.436Z,82.37
2023-04-25T05:50:57.022Z,82.49
2023-04-25T05:53:59.610Z,85.26
2023-04-25T05:57:03.978Z,84.07
2023-04-25T06:00:10.214Z,85.87
2023-04-25T06:03:15.861Z,86.05
2023-04-25T06:06:19.706Z,86.10
2023-04-25T06:09:22.291Z,87.53
2023-04-25T06:12:26.246Z,87.51
2023-04-25T06:15:29.155Z,87.29
2023-04-25T06:18:31.856Z,87.84
2023-04-25T06:21:34.463Z,87.08
2023-04-25T06:24:37.376Z,86.93
2023-04-25T06:27:41.312Z,86.86
2023-04-25T06:30:43.902Z,87.69
2023-04-25T06:33:46.464Z,87.23
2023-04-25T06:36:49.059Z,86.94
2023-04-25T06:39:51.658Z,85.92
2023-04-25T06:42:55.597Z,84.47
2023-04-25T06:45:58.331Z,84.63
2023-04-25T06:49:01.015Z,84.05
2023-04-25T06:52:03.840Z,86.15
2023-04-25T06:55:07.255Z,85.86
2023-04-25T06:58:11.247Z,85.98
2023-04-25T07:01:13.858Z,85.82
2023-04-25T07:04:16.607Z,83.88
2023-04-25T07:07:19.786Z,85.82
2023-04-25T07:10:22.860Z,86.37
2023-04-25T07:13:26.842Z,85.99
2023-04-25T07:16:29.641Z,86.91
2023-04-25T07:19:32.248Z,84.77
2023-04-25T07:22:34.971Z,83.49
2023-04-25T07:25:37.553Z,84.54
2023-04-25T07:28:41.510Z,85.37
2023-04-25T07:31:44.220Z,85.69
2023-04-25T07:34:46.867Z,86.88
2023-04-25T07:37:49.448Z,86.69
2023-04-25T07:40:52.228Z,85.74
2023-04-25T07:43:56.210Z,84.72
2023-04-25T07:46:58.787Z,84.21
2023-04-25T07:50:01.522Z,85.07
2023-04-25T07:53:04.171Z,83.59
2023-04-25T07:56:07.476Z,84.45
2023-04-25T07:59:11.705Z,84.52
2023-04-25T08:02:14.418Z,85.03
2023-04-25T08:05:19.573Z,85.55
2023-04-25T08:08:23.895Z,86.36
2023-04-25T08:11:26.826Z,85.88
2023-04-25T08:14:36.531Z,85.19
2023-04-25T08:17:39.415Z,82.93
2023-04-25T08:20:42.565Z,82.38
2023-04-25T08:23:45.138Z,81.74
2023-04-25T08:26:47.797Z,80.77
2023-04-25T08:29:51.993Z,79.84
2023-04-25T08:32:54.795Z,79.60
2023-04-25T08:35:57.904Z,79.26
2023-04-25T08:39:00.880Z,78.12
2023-04-25T08:42:08.114Z,77.85
2023-04-25T08:45:12.818Z,74.96
2023-04-25T08:48:16.811Z,75.61
2023-04-25T08:51:25.461Z,75.36
2023-04-25T08:54:34.273Z,74.72
2023-04-25T08:57:39.145Z,74.42
2023-04-25T09:00:43.221Z,73.73
2023-04-25T09:03:46.114Z,73.72
2023-04-25T09:06:48.876Z,73.32
2023-04-25T09:09:51.479Z,72.93
2023-04-25T09:13:09.667Z,73.31
2023-04-25T09:16:15.566Z,72.00
2023-04-25T09:19:38.066Z,71.34
2023-04-25T09:22:43.761Z,70.67
2023-04-25T09:25:46.761Z,74.51
2023-04-25T09:28:49.865Z,76.16
2023-04-25T09:31:53.921Z,74.59
2023-04-25T09:34:57.955Z,71.98
2023-04-25T09:38:01.152Z,72.98
2023-04-25T09:41:03.829Z,72.42
2023-04-25T09:44:06.512Z,73.92
2023-04-25T09:47:12.459Z,75.24
2023-04-25T09:50:19.980Z,74.74
2023-04-25T09:53:22.554Z,73.45
2023-04-25T09:56:26.699Z,74.15
2023-04-25T09:59:32.507Z,70.17
2023-04-25T10:02:37.787Z,72.35
2023-04-25T10:05:41.385Z,83.41
2023-04-25T10:08:45.197Z,86.79
2023-04-25T10:11:48.958Z,85.64
2023-04-25T10:14:52.284Z,87.30
2023-04-25T10:17:56.594Z,83.59
2023-04-25T10:21:02.062Z,82.00
2023-04-25T10:24:05.375Z,74.87
2023-04-25T10:27:08.493Z,73.77
2023-04-25T10:30:16.247Z,70.27
2023-04-25T10:33:20.723Z,71.45
2023-04-25T10:36:24.978Z,67.80
2023-04-25T10:39:29.702Z,63.59
2023-04-25T10:42:32.474Z,63.98
2023-04-25T10:45:53.516Z,59.58
2023-04-25T10:48:59.062Z,55.10
2023-04-25T10:52:29.070Z,56.18
2023-04-25T10:55:52.412Z,52.00
2023-04-25T10:59:06.448Z,52.96
2023-04-25T11:02:14.428Z,52.37
2023-04-25T11:05:25.678Z,55.80
2023-04-25T11:08:43.698Z,55.86
2023-04-25T11:11:55.833Z,56.50
2023-04-25T11:15:02.215Z,57.20
2023-04-25T11:18:05.083Z,56.99
2023-04-25T11:21:09.096Z,58.61
2023-04-25T11:24:12.452Z,60.38
2023-04-25T11:27:15.120Z,61.05
2023-04-25T11:30:18.344Z,62.22
2023-04-25T11:33:25.442Z,62.78
2023-04-25T11:36:29.405Z,59.61
2023-04-25T11:39:32.249Z,58.18
2023-04-25T11:42:35.213Z,57.03
2023-04-25T11:45:38.846Z,54.43
2023-04-25T11:48:42.149Z,53.10
2023-04-25T11:51:47.824Z,55.35
2023-04-25T11:54:50.483Z,56.50
2023-04-25T11:57:53.111Z,66.72
2023-04-25T12:00:59.507Z,79.71
2023-04-25T12:04:13.633Z,81.23
2023-04-25T12:07:19.741Z,76.43
2023-04-25T12:10:22.844Z,78.48
2023-04-25T12:13:26.876Z,73.78
2023-04-25T12:16:29.532Z,72.50
2023-04-25T12:19:35.156Z,70.56
2023-04-25T12:22:39.156Z,64.67
2023-04-25T12:25:43.350Z,62.87
2023-04-25T12:28:48.110Z,59.78
2023-04-25T12:31:52.208Z,55.43
2023-04-25T12:34:54.923Z,54.47
2023-04-25T12:37:58.873Z,55.69
2023-04-25T12:41:01.958Z,52.25
2023-04-25T12:44:04.610Z,52.59
2023-04-25T12:47:07.705Z,51.40
2023-04-25T12:50:11.429Z,47.43
2023-04-25T12:53:15.390Z,46.00
2023-04-25T12:56:18.051Z,42.70
2023-04-25T12:59:21.421Z,46.44
2023-04-25T13:02:24.231Z,48.01
2023-04-25T13:05:27.257Z,48.17
2023-04-25T13:08:31.979Z,48.88
2023-04-25T13:11:34.584Z,47.09
2023-04-25T13:14:37.182Z,50.94
2023-04-25T13:17:39.848Z,53.10
2023-04-25T13:20:42.536Z,54.68
2023-04-25T13:23:47.573Z,54.69
2023-04-25T13:26:50.263Z,55.07
2023-04-25T13:29:52.842Z,50.29
2023-04-25T13:32:57.256Z,49.23
2023-04-25T13:35:59.918Z,50.89
2023-04-25T13:39:05.404Z,53.45
2023-04-25T13:42:07.985Z,55.79
2023-04-25T13:45:11.154Z,58.40
2023-04-25T13:48:13.812Z,60.04
2023-04-25T13:51:20.759Z,61.34
2023-04-25T13:54:24.689Z,62.09
2023-04-25T13:57:27.380Z,62.20
2023-04-25T14:00:30.074Z,59.26
2023-04-25T14:03:33.132Z,58.84
2023-04-25T14:06:36.345Z,58.45
2023-04-25T14:09:40.319Z,62.78
2023-04-25T14:12:42.929Z,71.52
2023-04-25T14:15:45.509Z,77.08
2023-04-25T14:18:48.177Z,81.88
2023-04-25T14:21:50.911Z,82.51
2023-04-25T14:24:54.869Z,80.80
2023-04-25T14:27:57.507Z,80.44
2023-04-25T14:31:00.309Z,80.17
2023-04-25T14:34:04.116Z,78.42
2023-04-25T14:37:06.816Z,78.63
2023-04-25T14:40:12.985Z,74.60
2023-04-25T14:43:15.758Z,73.93
2023-04-25T14:46:18.522Z,71.91
2023-04-25T14:49:21.459Z,68.82
2023-04-25T14:52:24.215Z,66.18
2023-04-25T14:55:28.221Z,64.05
2023-04-25T14:58:31.252Z,65.02
2023-04-25T15:01:33.932Z,63.19
2023-04-25T15:04:36.769Z,63.16
2023-04-25T15:07:40.337Z,61.09
2023-04-25T15:10:44.553Z,61.00
2023-04-25T15:13:47.550Z,61.32
2023-04-25T15:16:50.199Z,59.89
2023-04-25T15:19:52.825Z,60.11
2023-04-25T15:22:55.600Z,60.76
2023-04-25T15:25:59.548Z,57.90
2023-04-25T15:29:02.125Z,56.17
2023-04-25T15:32:04.978Z,58.51
2023-04-25T15:35:08.800Z,61.29
2023-04-25T15:38:12.270Z,61.52
2023-04-25T15:41:16.249Z,61.14
2023-04-25T15:44:18.921Z,59.95
2023-04-25T15:47:21.591Z,60.37
2023-04-25T15:50:25.093Z,59.92
2023-04-25T15:53:27.724Z,59.36
2023-04-25T15:56:31.957Z,58.85
2023-04-25T15:59:34.562Z,59.46
2023-04-25T16:02:37.503Z,60.30
2023-04-25T16:05:41.022Z,59.17
2023-04-25T16:08:44.094Z,59.09
2023-04-25T16:11:49.385Z,56.18
2023-04-25T16:14:53.125Z,55.34
2023-04-25T16:17:56.678Z,54.74
2023-04-25T16:21:00.603Z,54.45
2023-04-25T16:24:03.248Z,53.57
2023-04-25T16:27:07.251Z,54.58
2023-04-25T16:30:11.782Z,53.60
2023-04-25T16:33:14.430Z,55.70
2023-04-25T16:36:17.223Z,55.63
2023-04-25T16:39:21.775Z,54.34
2023-04-25T16:42:25.831Z,52.19
2023-04-25T16:45:28.447Z,53.13
2023-04-25T16:48:31.252Z,53.89
2023-04-25T16:51:33.948Z,54.15
2023-04-25T16:54:37.227Z,55.20
2023-04-25T16:57:41.314Z,56.16
2023-04-25T17:00:44.081Z,57.27
2023-04-25T17:03:47.522Z,58.53
2023-04-25T17:06:50.262Z,59.10
2023-04-25T17:09:52.841Z,59.68
2023-04-25T17:12:56.956Z,60.24
2023-04-25T17:15:59.664Z,61.11
2023-04-25T17:19:02.243Z,62.02
2023-04-25T17:22:04.934Z,64.17
2023-04-25T17:25:09.566Z,65.46
2023-04-25T17:28:13.915Z,67.57
2023-04-25T17:31:16.800Z,68.92
2023-04-25T17:34:19.436Z,70.00
2023-04-25T17:37:22.472Z,73.75
2023-04-25T17:40:25.800Z,81.81
2023-04-25T17:43:29.823Z,84.40
2023-04-25T17:46:32.461Z,82.67
2023-04-25T17:49:35.108Z,81.25
2023-04-25T17:52:38.541Z,82.39
2023-04-25T17:55:43.511Z,81.91
2023-04-25T17:58:47.782Z,80.41
2023-04-25T18:01:50.523Z,82.67
2023-04-25T18:04:53.413Z,80.35
2023-04-25T18:07:56.301Z,80.06
2023-04-25T18:10:58.941Z,81.57
2023-04-25T18:14:02.981Z,82.50
2023-04-25T18:17:07.103Z,81.46
2023-04-25T18:20:13.680Z,82.04
2023-04-25T18:23:16.363Z,81.59
2023-04-25T18:26:20.133Z,81.52
2023-04-25T18:29:33.044Z,79.94
2023-04-25T18:32:36.801Z,79.68
2023-04-25T18:35:45.141Z,80.49
2023-04-25T18:38:56.234Z,79.69
2023-04-25T18:42:04.643Z,78.62
2023-04-25T18:45:11.397Z,80.57
2023-04-25T18:48:14.298Z,79.98
2023-04-25T18:51:17.167Z,80.39
2023-04-25T18:54:19.751Z,81.36
2023-04-25T18:57:22.366Z,79.89
2023-04-25T19:00:26.390Z,80.62
2023-04-25T19:03:29.582Z,81.64
2023-04-25T19:06:32.662Z,81.35
2023-04-25T19:09:35.275Z,81.98
2023-04-25T19:12:37.876Z,82.70
2023-04-25T19:15:41.896Z,82.20
2023-04-25T19:18:45.056Z,82.99
2023-04-25T19:21:47.686Z,86.19
2023-04-25T19:24:55.750Z,86.86
2023-04-25T19:28:07.524Z,87.27
2023-04-25T19:31:11.801Z,86.36
2023-04-25T19:34:14.836Z,87.46
2023-04-25T19:37:17.956Z,87.31
2023-04-25T19:40:22.659Z,87.80
2023-04-25T19:43:25.239Z,88.29
2023-04-25T19:46:29.278Z,86.85
2023-04-25T19:49:32.081Z,87.33
2023-04-25T19:52:35.802Z,87.07
2023-04-25T19:55:38.530Z,87.45
2023-04-25T19:58:41.207Z,85.25
2023-04-25T20:01:45.286Z,86.68
2023-04-25T20:04:47.932Z,86.12
2023-04-25T20:07:50.536Z,86.64
2023-04-25T20:10:53.136Z,86.06
2023-04-25T20:13:56.217Z,86.38
2023-04-25T20:17:00.215Z,85.56
2023-04-25T20:20:06.180Z,84.25
2023-04-25T20:23:08.794Z,85.13
2023-04-25T20:26:12.609Z,85.10
2023-04-25T20:29:15.219Z,87.20
2023-04-25T20:32:19.217Z,86.56
2023-04-25T20:35:22.912Z,86.76
2023-04-25T20:38:25.881Z,87.62
2023-04-25T20:41:28.526Z,88.42
2023-04-25T20:44:32.018Z,88.75
2023-04-25T20:47:36.056Z,88.02
2023-04-25T20:50:39.069Z,88.66
2023-04-25T20:53:41.734Z,88.66
2023-04-25T20:56:44.770Z,89.36
2023-04-25T20:59:48.974Z,87.79
2023-04-25T21:02:55.002Z,89.75
2023-04-25T21:05:57.695Z,88.91
2023-04-25T21:09:00.332Z,90.62
2023-04-25T21:12:03.483Z,91.08
2023-04-25T21:15:06.882Z,90.19
2023-04-25T21:18:11.088Z,89.54
2023-04-25T21:21:13.734Z,89.61
2023-04-25T21:24:16.370Z,89.42
2023-04-25T21:27:18.951Z,88.94
2023-04-25T21:30:23.785Z,89.98
2023-04-25T21:33:28.054Z,89.68
2023-04-25T21:36:30.760Z,89.32
2023-04-25T21:39:33.357Z,89.73
2023-04-25T21:42:36.212Z,92.09
2023-04-25T21:45:53.711Z,92.45
2023-04-25T21:49:02.813Z,91.76
2023-04-25T21:52:05.548Z,93.14
2023-04-25T21:55:09.266Z,94.63
2023-04-25T21:58:11.860Z,96.04
2023-04-25T22:01:15.776Z,98.14
2023-04-25T22:04:20.556Z,97.48
2023-04-25T22:07:23.305Z,96.97
2023-04-25T22:10:26.442Z,96.85
2023-04-25T22:13:29.068Z,95.11
2023-04-25T22:16:31.687Z,96.52
2023-04-25T22:19:36.821Z,95.94
2023-04-25T22:22:40.760Z,95.03
2023-04-25T22:25:43.354Z,95.66
2023-04-25T22:28:46.291Z,95.64
2023-04-25T22:31:48.941Z,98.44
2023-04-25T22:34:52.999Z,100.00
2023-04-25T22:37:55.648Z,99.85
2023-04-25T22:40:58.271Z,100.00
2023-04-25T22:44:00.865Z,100.00
2023-04-25T22:47:03.441Z,100.00
2023-04-25T22:50:13.092Z,99.90
2023-04-25T22:53:16.245Z,97.91
2023-04-25T22:56:18.836Z,98.25
2023-04-25T22:59:21.628Z,98.03
2023-04-25T23:02:24.932Z,99.19
2023-04-25T23:05:29.030Z,98.82
2023-04-25T23:08:31.727Z,100.00
2023-04-25T23:11:34.354Z,100.00
2023-04-25T23:14:36.930Z,100.00
2023-04-25T23:17:39.531Z,100.00
2023-04-25T23:20:43.583Z,100.00
2023-04-25T23:23:46.197Z,100.00
2023-04-25T23:26:48.779Z,100.00
2023-04-25T23:29:56.497Z,100.00
2023-04-25T23:32:59.174Z,100.00
2023-04-25T23:36:03.293Z,100.00
2023-04-25T23:39:05.936Z,100.00
2023-04-25T23:42:08.842Z,100.00
2023-04-25T23:45:12.448Z,100.00
2023-04-25T23:48:15.876Z,100.00
2023-04-25T23:51:19.976Z,100.00
2023-04-25T23:54:22.739Z,100.00
2023-04-25T23:57:25.458Z,100.00
